createdAt,value
2018-08-16T00:00:15.030Z,81.86
2018-08-16T00:02:49.706Z,81.15
2018-08-16T00:05:24.325Z,81.66
2018-08-16T00:07:59.113Z,82.14
2018-08-16T00:10:33.765Z,81.19
2018-08-16T00:13:08.263Z,81.33
2018-08-16T00:15:42.892Z,81.01
2018-08-16T00:18:17.527Z,80.36
2018-08-16T00:20:52.185Z,80.73
2018-08-16T00:23:35.093Z,80.95
2018-08-16T00:26:09.717Z,80.60
2018-08-16T00:28:44.197Z,80.37
2018-08-16T00:31:18.838Z,80.78
2018-08-16T00:33:53.563Z,81.35
2018-08-16T00:36:28.161Z,80.47
2018-08-16T00:39:02.741Z,80.63
2018-08-16T00:41:37.561Z,81.07
2018-08-16T00:44:12.301Z,80.01
2018-08-16T00:46:46.841Z,80.23
2018-08-16T00:49:21.469Z,81.14
2018-08-16T00:51:56.061Z,80.62
2018-08-16T00:54:30.713Z,81.21
2018-08-16T00:57:05.469Z,81.11
2018-08-16T00:59:39.988Z,80.91
2018-08-16T01:02:14.560Z,81.12
2018-08-16T01:04:49.241Z,80.78
2018-08-16T01:07:23.968Z,80.97
2018-08-16T01:10:07.889Z,80.53
2018-08-16T01:12:45.066Z,79.89
2018-08-16T01:15:23.570Z,80.19
2018-08-16T01:18:17.380Z,80.10
2018-08-16T01:20:52.109Z,79.70
2018-08-16T01:23:26.606Z,80.44
2018-08-16T01:26:01.301Z,80.38
2018-08-16T01:28:35.900Z,80.56
2018-08-16T01:31:26.636Z,81.16
2018-08-16T01:34:08.028Z,81.10
2018-08-16T01:36:42.707Z,80.96
2018-08-16T01:39:17.258Z,80.91
2018-08-16T01:41:51.789Z,80.33
2018-08-16T01:47:25.348Z,79.86
2018-08-16T01:49:59.849Z,79.97
2018-08-16T01:52:34.553Z,80.43
2018-08-16T01:55:09.536Z,80.47
2018-08-16T01:57:44.146Z,80.71
2018-08-16T02:00:18.824Z,80.82
2018-08-16T02:02:53.392Z,81.10
2018-08-16T02:05:28.006Z,80.97
2018-08-16T02:08:02.724Z,82.11
2018-08-16T02:10:37.330Z,81.81
2018-08-16T02:13:22.026Z,81.92
2018-08-16T02:15:56.700Z,81.93
2018-08-16T02:18:31.640Z,82.26
2018-08-16T02:21:06.162Z,82.04
2018-08-16T02:23:40.808Z,81.34
2018-08-16T02:26:15.496Z,80.89
2018-08-16T02:28:50.081Z,81.01
2018-08-16T02:31:24.676Z,80.99
2018-08-16T02:33:59.279Z,80.79
2018-08-16T02:36:33.906Z,81.12
2018-08-16T02:39:09.328Z,81.54
2018-08-16T02:41:43.873Z,81.34
2018-08-16T02:44:18.508Z,81.09
2018-08-16T02:46:53.000Z,81.77
2018-08-16T02:49:27.544Z,81.60
2018-08-16T02:52:02.401Z,81.61
2018-08-16T02:54:36.945Z,81.78
2018-08-16T02:57:11.685Z,81.90
2018-08-16T02:59:46.314Z,82.30
2018-08-16T03:02:20.876Z,81.55
2018-08-16T03:04:55.485Z,81.08
2018-08-16T03:07:30.146Z,81.62
2018-08-16T03:10:06.380Z,81.25
2018-08-16T03:12:40.949Z,81.88
2018-08-16T03:15:15.443Z,81.80
2018-08-16T03:17:49.996Z,81.84
2018-08-16T03:20:24.654Z,81.29
2018-08-16T03:22:59.231Z,81.29
2018-08-16T03:25:33.916Z,80.75
2018-08-16T03:28:08.336Z,81.44
2018-08-16T03:30:42.832Z,81.65
2018-08-16T03:33:17.298Z,80.98
2018-08-16T03:35:51.752Z,82.25
2018-08-16T03:38:26.701Z,81.45
2018-08-16T03:41:01.216Z,81.96
2018-08-16T03:43:35.748Z,82.38
2018-08-16T03:46:10.321Z,82.70
2018-08-16T03:48:44.899Z,82.41
2018-08-16T03:51:19.628Z,82.74
2018-08-16T03:53:54.353Z,82.82
2018-08-16T03:56:29.285Z,82.67
2018-08-16T03:59:04.016Z,82.67
2018-08-16T04:01:38.639Z,83.19
2018-08-16T04:04:13.292Z,82.93
2018-08-16T04:06:47.906Z,84.04
2018-08-16T04:09:25.304Z,83.70
2018-08-16T04:11:59.975Z,84.04
2018-08-16T04:14:34.557Z,84.15
2018-08-16T04:17:09.208Z,84.33
2018-08-16T04:19:43.944Z,84.79
2018-08-16T04:22:18.497Z,84.42
2018-08-16T04:24:53.073Z,84.13
2018-08-16T04:27:28.082Z,83.86
2018-08-16T04:30:02.497Z,83.35
2018-08-16T04:32:37.005Z,83.39
2018-08-16T04:35:11.549Z,82.59
2018-08-16T04:37:45.978Z,82.60
2018-08-16T04:40:20.530Z,82.22
2018-08-16T04:42:55.318Z,82.73
2018-08-16T04:45:29.832Z,83.40
2018-08-16T04:48:04.469Z,83.16
2018-08-16T04:50:39.032Z,82.92
2018-08-16T04:53:13.614Z,82.49
2018-08-16T04:55:48.029Z,82.37
2018-08-16T04:58:22.657Z,82.16
2018-08-16T05:00:57.340Z,81.71
2018-08-16T05:03:31.768Z,81.45
2018-08-16T05:06:06.441Z,81.09
2018-08-16T05:08:41.468Z,81.07
2018-08-16T05:11:16.053Z,80.78
2018-08-16T05:13:50.621Z,79.99
2018-08-16T05:16:25.264Z,79.76
2018-08-16T05:18:59.707Z,79.29
2018-08-16T05:21:34.157Z,79.00
2018-08-16T05:24:08.704Z,78.31
2018-08-16T05:26:43.358Z,77.87
2018-08-16T05:29:17.995Z,77.21
2018-08-16T05:31:52.699Z,77.71
2018-08-16T05:34:27.202Z,77.11
2018-08-16T05:37:01.867Z,76.46
2018-08-16T05:39:36.551Z,75.05
2018-08-16T05:42:11.090Z,76.12
2018-08-16T05:44:46.065Z,74.50
2018-08-16T05:47:20.542Z,72.99
2018-08-16T05:49:55.130Z,74.18
2018-08-16T05:52:29.731Z,72.98
2018-08-16T05:55:04.572Z,71.50
2018-08-16T05:57:39.550Z,71.71
2018-08-16T06:00:14.556Z,70.39
2018-08-16T06:02:49.143Z,70.26
2018-08-16T06:05:23.877Z,67.52
2018-08-16T06:07:58.671Z,61.16
2018-08-16T06:10:33.326Z,55.81
2018-08-16T06:13:08.057Z,49.93
2018-08-16T06:15:42.661Z,44.53
2018-08-16T06:18:17.104Z,40.74
2018-08-16T06:20:51.563Z,42.94
2018-08-16T06:23:26.085Z,39.26
2018-08-16T06:26:00.464Z,37.48
2018-08-16T06:28:35.104Z,39.03
2018-08-16T06:31:09.783Z,37.64
2018-08-16T06:33:44.337Z,38.21
2018-08-16T06:36:18.980Z,37.29
2018-08-16T06:38:53.636Z,39.08
2018-08-16T06:41:28.007Z,38.52
2018-08-16T06:44:02.999Z,38.23
2018-08-16T06:46:37.507Z,34.45
2018-08-16T06:49:12.007Z,34.28
2018-08-16T06:51:46.537Z,37.40
2018-08-16T06:54:20.938Z,36.93
2018-08-16T06:56:55.557Z,34.66
2018-08-16T06:59:29.949Z,30.49
2018-08-16T07:02:04.857Z,34.78
2018-08-16T07:04:39.346Z,35.19
2018-08-16T07:07:14.171Z,32.42
2018-08-16T07:09:48.840Z,29.10
2018-08-16T07:12:23.605Z,33.19
2018-08-16T07:14:58.344Z,31.99
2018-08-16T07:17:32.820Z,33.97
2018-08-16T07:20:07.648Z,31.58
2018-08-16T07:22:42.165Z,32.36
2018-08-16T07:25:16.690Z,30.92
2018-08-16T07:27:51.117Z,28.23
2018-08-16T07:30:25.565Z,31.01
2018-08-16T07:33:00.210Z,28.23
2018-08-16T07:35:34.754Z,30.55
2018-08-16T07:38:09.222Z,31.84
2018-08-16T07:40:43.888Z,27.94
2018-08-16T07:43:18.283Z,30.36
2018-08-16T07:45:53.053Z,32.58
2018-08-16T07:48:27.611Z,25.91
2018-08-16T07:51:02.353Z,32.57
2018-08-16T07:53:36.806Z,32.64
2018-08-16T07:56:11.216Z,35.55
2018-08-16T07:58:45.732Z,30.62
2018-08-16T08:01:20.255Z,29.64
2018-08-16T08:03:54.928Z,29.71
2018-08-16T08:06:29.628Z,30.96
2018-08-16T08:09:05.751Z,30.64
2018-08-16T08:11:40.268Z,29.15
2018-08-16T08:14:14.936Z,30.99
2018-08-16T08:16:49.479Z,36.04
2018-08-16T08:19:24.102Z,37.45
2018-08-16T08:21:58.685Z,40.30
2018-08-16T08:24:33.298Z,41.45
2018-08-16T08:27:08.014Z,44.52
2018-08-16T08:29:42.530Z,41.14
2018-08-16T08:32:17.081Z,36.40
2018-08-16T08:34:51.520Z,37.09
2018-08-16T08:37:37.577Z,38.12
2018-08-16T08:40:12.357Z,40.29
2018-08-16T08:42:46.853Z,38.29
2018-08-16T08:45:21.487Z,39.27
2018-08-16T08:47:56.088Z,39.49
2018-08-16T08:50:30.588Z,41.77
2018-08-16T08:53:16.557Z,37.19
2018-08-16T08:56:02.392Z,35.91
2018-08-16T08:58:51.525Z,34.98
2018-08-16T09:01:27.160Z,31.72
2018-08-16T09:04:01.656Z,27.11
2018-08-16T09:06:36.265Z,26.83
2018-08-16T09:09:10.845Z,28.15
2018-08-16T09:11:56.829Z,30.08
2018-08-16T09:14:42.877Z,28.41
2018-08-16T09:17:17.266Z,35.00
2018-08-16T09:19:51.932Z,36.35
2018-08-16T09:22:26.573Z,36.12
2018-08-16T09:25:01.262Z,35.17
2018-08-16T09:27:35.777Z,30.51
2018-08-16T09:30:23.112Z,29.82
2018-08-16T09:33:09.010Z,28.38
2018-08-16T09:35:43.524Z,31.17
2018-08-16T09:38:18.145Z,31.67
2018-08-16T09:40:52.589Z,27.14
2018-08-16T09:43:27.548Z,29.18
2018-08-16T09:47:13.446Z,31.58
2018-08-16T09:49:49.700Z,35.74
2018-08-16T09:52:24.171Z,32.32
2018-08-16T09:54:58.634Z,31.09
2018-08-16T09:57:33.279Z,33.31
2018-08-16T10:00:07.769Z,36.21
2018-08-16T10:02:42.245Z,34.25
2018-08-16T10:05:16.718Z,34.92
2018-08-16T10:07:51.199Z,34.88
2018-08-16T10:10:25.790Z,34.38
2018-08-16T10:13:00.734Z,34.46
2018-08-16T10:15:35.157Z,32.93
2018-08-16T10:18:09.725Z,28.62
2018-08-16T10:20:44.306Z,27.20
2018-08-16T10:23:19.523Z,28.82
2018-08-16T10:25:54.535Z,30.81
2018-08-16T10:28:29.068Z,31.58
2018-08-16T10:31:03.821Z,32.08
2018-08-16T10:33:38.417Z,33.64
2018-08-16T10:36:13.040Z,35.62
2018-08-16T10:38:47.538Z,35.20
2018-08-16T10:41:22.030Z,30.97
2018-08-16T10:43:56.622Z,30.83
2018-08-16T10:46:31.321Z,29.27
2018-08-16T10:49:05.856Z,27.49
2018-08-16T10:51:40.318Z,26.17
2018-08-16T10:54:14.963Z,27.30
2018-08-16T10:56:50.210Z,28.23
2018-08-16T10:59:24.689Z,29.41
2018-08-16T11:01:59.191Z,28.56
2018-08-16T11:04:33.905Z,30.98
2018-08-16T11:07:08.566Z,32.05
2018-08-16T11:09:43.152Z,30.53
2018-08-16T11:12:17.835Z,30.55
2018-08-16T11:14:52.474Z,31.15
2018-08-16T11:17:27.156Z,32.84
2018-08-16T11:20:01.799Z,32.85
2018-08-16T11:22:36.408Z,37.46
2018-08-16T11:25:11.102Z,36.44
2018-08-16T11:27:45.764Z,36.23
2018-08-16T11:30:20.416Z,34.02
2018-08-16T11:32:55.280Z,36.56
2018-08-16T11:35:29.777Z,36.69
2018-08-16T11:38:04.257Z,38.69
2018-08-16T11:40:38.642Z,39.57
2018-08-16T11:43:13.262Z,40.75
2018-08-16T11:45:47.954Z,40.86
2018-08-16T11:48:22.469Z,39.06
2018-08-16T11:50:57.296Z,39.06
2018-08-16T11:53:31.833Z,39.84
2018-08-16T11:56:06.481Z,39.28
2018-08-16T11:58:41.142Z,39.19
2018-08-16T12:01:15.524Z,40.54
2018-08-16T12:03:50.020Z,39.11
2018-08-16T12:06:24.547Z,40.67
2018-08-16T12:08:58.984Z,39.92
2018-08-16T12:11:33.488Z,39.19
2018-08-16T12:14:08.096Z,39.45
2018-08-16T12:16:42.620Z,39.14
2018-08-16T12:19:16.997Z,39.60
2018-08-16T12:21:51.872Z,40.28
2018-08-16T12:24:26.616Z,40.88
2018-08-16T12:27:01.097Z,40.68
2018-08-16T12:29:35.676Z,40.82
2018-08-16T12:32:10.295Z,41.38
2018-08-16T12:34:45.070Z,40.56
2018-08-16T12:37:19.845Z,39.69
2018-08-16T12:39:54.760Z,37.35
2018-08-16T12:42:29.321Z,38.39
2018-08-16T12:45:04.477Z,38.60
2018-08-16T12:47:39.324Z,38.06
2018-08-16T12:50:13.710Z,37.78
2018-08-16T12:52:48.419Z,39.00
2018-08-16T12:55:22.929Z,37.51
2018-08-16T12:57:57.530Z,37.23
2018-08-16T13:00:32.100Z,37.12
2018-08-16T13:03:06.856Z,36.98
2018-08-16T13:05:41.310Z,37.45
2018-08-16T13:08:15.772Z,37.11
2018-08-16T13:10:50.641Z,36.09
2018-08-16T13:13:25.318Z,35.82
2018-08-16T13:15:59.845Z,36.28
2018-08-16T13:18:34.657Z,38.29
2018-08-16T13:21:09.231Z,35.49
2018-08-16T13:23:43.842Z,36.50
2018-08-16T13:26:18.404Z,35.61
2018-08-16T13:28:53.538Z,35.66
2018-08-16T13:31:28.135Z,35.94
2018-08-16T13:34:02.721Z,35.71
2018-08-16T13:36:37.384Z,36.59
2018-08-16T13:39:13.752Z,36.13
2018-08-16T13:41:48.400Z,35.97
2018-08-16T13:44:22.917Z,35.67
2018-08-16T13:46:57.604Z,35.35
2018-08-16T13:49:32.150Z,36.24
2018-08-16T13:52:07.430Z,36.06
2018-08-16T13:54:41.987Z,35.70
2018-08-16T13:57:16.533Z,35.66
2018-08-16T13:59:51.089Z,36.76
2018-08-16T14:02:25.618Z,36.18
2018-08-16T14:05:00.174Z,35.58
2018-08-16T14:07:34.780Z,35.77
2018-08-16T14:10:09.693Z,34.97
2018-08-16T14:12:44.326Z,35.77
2018-08-16T14:15:18.853Z,36.63
2018-08-16T14:17:53.548Z,36.01
2018-08-16T14:20:28.040Z,36.36
2018-08-16T14:23:02.669Z,36.41
2018-08-16T14:25:37.294Z,35.71
2018-08-16T14:28:11.942Z,35.37
2018-08-16T14:30:46.645Z,33.86
2018-08-16T14:33:21.391Z,33.66
2018-08-16T14:35:56.025Z,31.80
2018-08-16T14:38:30.562Z,31.77
2018-08-16T14:41:05.177Z,32.78
2018-08-16T14:43:39.684Z,32.49
2018-08-16T14:46:14.359Z,30.81
2018-08-16T14:48:48.924Z,31.77
2018-08-16T14:51:23.659Z,27.80
2018-08-16T14:53:58.144Z,28.91
2018-08-16T14:56:32.886Z,28.86
2018-08-16T14:59:07.440Z,26.42
2018-08-16T15:01:42.317Z,25.93
2018-08-16T15:04:16.889Z,26.77
2018-08-16T15:06:51.489Z,28.21
2018-08-16T15:09:26.120Z,26.74
2018-08-16T15:12:00.706Z,26.41
2018-08-16T15:14:35.389Z,26.76
2018-08-16T15:17:10.391Z,25.25
2018-08-16T15:19:45.058Z,24.71
2018-08-16T15:22:19.652Z,25.91
2018-08-16T15:24:54.438Z,26.68
2018-08-16T15:27:28.948Z,26.92
2018-08-16T15:30:03.383Z,25.82
2018-08-16T15:32:37.991Z,26.64
2018-08-16T15:35:12.532Z,26.98
2018-08-16T15:37:47.162Z,25.85
2018-08-16T15:40:21.582Z,26.99
2018-08-16T15:42:56.354Z,26.31
2018-08-16T15:45:30.951Z,28.75
2018-08-16T15:48:09.757Z,28.92
2018-08-16T15:50:45.135Z,29.32
2018-08-16T15:53:19.545Z,28.67
2018-08-16T15:55:54.178Z,28.11
2018-08-16T15:58:28.652Z,28.59
2018-08-16T16:01:03.246Z,29.08
2018-08-16T16:03:37.723Z,30.33
2018-08-16T16:06:12.528Z,32.20
2018-08-16T16:08:46.789Z,33.33
2018-08-16T16:11:21.296Z,33.68
2018-08-16T16:13:55.906Z,33.83
2018-08-16T16:16:30.476Z,33.73
2018-08-16T16:19:05.156Z,34.13
2018-08-16T16:21:39.861Z,34.76
2018-08-16T16:24:14.502Z,35.40
2018-08-16T16:26:49.034Z,34.32
2018-08-16T16:29:23.631Z,35.03
2018-08-16T16:31:58.308Z,35.50
2018-08-16T16:34:32.953Z,35.75
2018-08-16T16:37:07.575Z,36.19
2018-08-16T16:39:42.160Z,36.74
2018-08-16T16:42:16.773Z,37.47
2018-08-16T16:44:58.956Z,37.24
2018-08-16T16:47:44.837Z,37.76
2018-08-16T16:50:25.440Z,38.33
2018-08-16T16:53:02.437Z,38.35
2018-08-16T16:55:40.230Z,37.25
2018-08-16T16:58:14.905Z,38.27
2018-08-16T17:00:49.518Z,38.37
2018-08-16T17:03:37.323Z,38.46
2018-08-16T17:06:11.821Z,37.20
2018-08-16T17:08:46.512Z,37.65
2018-08-16T17:11:21.216Z,37.79
2018-08-16T17:13:55.854Z,38.02
2018-08-16T17:16:30.620Z,38.18
2018-08-16T17:19:05.357Z,38.44
2018-08-16T17:21:39.865Z,38.24
2018-08-16T17:24:14.533Z,38.64
2018-08-16T17:26:49.047Z,38.52
2018-08-16T17:29:23.568Z,38.27
2018-08-16T17:31:58.240Z,40.05
2018-08-16T17:34:32.810Z,39.34
2018-08-16T17:37:07.653Z,39.67
2018-08-16T17:39:42.228Z,39.66
2018-08-16T17:42:16.788Z,40.15
2018-08-16T17:44:51.306Z,39.47
2018-08-16T17:47:25.880Z,39.74
2018-08-16T17:50:00.395Z,39.98
2018-08-16T17:52:35.026Z,40.05
2018-08-16T17:55:09.736Z,40.77
2018-08-16T17:57:44.256Z,41.37
2018-08-16T18:00:18.972Z,41.66
2018-08-16T18:02:53.427Z,42.93
2018-08-16T18:05:28.161Z,42.66
2018-08-16T18:08:02.776Z,42.89
2018-08-16T18:10:37.392Z,43.16
2018-08-16T18:13:12.032Z,43.43
2018-08-16T18:15:46.647Z,43.51
2018-08-16T18:18:21.053Z,44.00
2018-08-16T18:20:55.549Z,43.93
2018-08-16T18:23:30.156Z,43.70
2018-08-16T18:26:04.688Z,43.94
2018-08-16T18:28:39.357Z,44.13
2018-08-16T18:31:13.864Z,44.79
2018-08-16T18:33:48.417Z,44.53
2018-08-16T18:36:23.073Z,44.50
2018-08-16T18:38:57.803Z,44.90
2018-08-16T18:41:32.308Z,45.57
2018-08-16T18:44:07.186Z,45.76
2018-08-16T18:46:41.677Z,45.31
2018-08-16T18:49:16.968Z,45.57
2018-08-16T18:51:51.393Z,46.10
2018-08-16T18:54:25.878Z,46.13
2018-08-16T18:57:00.420Z,46.85
2018-08-16T18:59:35.053Z,47.20
2018-08-16T19:02:09.836Z,47.68
2018-08-16T19:04:44.456Z,47.65
2018-08-16T19:07:19.101Z,47.81
2018-08-16T19:09:53.680Z,47.60
2018-08-16T19:12:28.117Z,47.52
2018-08-16T19:15:02.724Z,48.37
2018-08-16T19:17:37.372Z,48.34
2018-08-16T19:20:12.373Z,48.57
2018-08-16T19:22:47.001Z,48.51
2018-08-16T19:25:21.572Z,48.68
2018-08-16T19:27:56.289Z,49.12
2018-08-16T19:30:30.957Z,48.81
2018-08-16T19:33:05.643Z,48.63
2018-08-16T19:35:40.269Z,48.94
2018-08-16T19:38:14.748Z,49.19
2018-08-16T19:40:49.285Z,49.02
2018-08-16T19:43:23.829Z,49.12
2018-08-16T19:45:58.580Z,49.15
2018-08-16T19:48:33.366Z,49.40
2018-08-16T19:51:08.284Z,50.03
2018-08-16T19:53:42.745Z,50.27
2018-08-16T19:56:17.410Z,50.49
2018-08-16T19:58:51.966Z,50.47
2018-08-16T20:01:26.795Z,51.03
2018-08-16T20:04:01.349Z,50.98
2018-08-16T20:06:35.757Z,51.06
2018-08-16T20:09:11.357Z,51.24
2018-08-16T20:11:45.937Z,51.72
2018-08-16T20:14:20.592Z,51.64
2018-08-16T20:16:55.108Z,52.36
2018-08-16T20:19:29.856Z,52.40
2018-08-16T20:22:05.445Z,52.73
2018-08-16T20:24:40.171Z,52.71
2018-08-16T20:27:15.064Z,52.90
2018-08-16T20:29:49.741Z,53.22
2018-08-16T20:32:24.317Z,53.59
2018-08-16T20:34:59.041Z,54.24
2018-08-16T20:37:33.594Z,53.63
2018-08-16T20:40:08.186Z,54.16
2018-08-16T20:42:42.769Z,54.15
2018-08-16T20:45:17.284Z,54.17
2018-08-16T20:47:51.948Z,55.06
2018-08-16T20:50:26.646Z,55.08
2018-08-16T20:53:01.208Z,54.96
2018-08-16T20:55:35.853Z,54.73
2018-08-16T20:58:28.352Z,55.16
2018-08-16T21:04:18.846Z,55.68
2018-08-16T21:06:53.488Z,55.63
2018-08-16T21:09:28.000Z,55.54
2018-08-16T21:12:02.648Z,55.86
2018-08-16T21:14:37.272Z,55.64
2018-08-16T21:17:12.003Z,55.98
2018-08-16T21:19:46.535Z,55.98
2018-08-16T21:22:21.136Z,56.60
2018-08-16T21:24:55.693Z,56.49
2018-08-16T21:27:30.129Z,56.45
2018-08-16T21:30:06.151Z,57.61
2018-08-16T21:32:40.761Z,56.96
2018-08-16T21:35:15.274Z,57.09
2018-08-16T21:37:49.844Z,57.59
2018-08-16T21:40:24.443Z,57.30
2018-08-16T21:42:58.896Z,57.17
2018-08-16T21:45:33.488Z,57.62
2018-08-16T21:48:07.942Z,58.32
2018-08-16T21:50:42.503Z,58.29
2018-08-16T21:53:17.157Z,57.81
2018-08-16T21:55:51.734Z,58.21
2018-08-16T21:58:26.434Z,58.49
2018-08-16T22:01:04.808Z,58.40
2018-08-16T22:03:39.325Z,59.11
2018-08-16T22:06:25.117Z,58.83
2018-08-16T22:08:59.686Z,58.51
2018-08-16T22:11:34.135Z,58.56
2018-08-16T22:14:08.841Z,58.83
2018-08-16T22:16:43.372Z,59.06
2018-08-16T22:19:18.089Z,59.50
2018-08-16T22:21:52.921Z,59.58
2018-08-16T22:24:27.572Z,59.52
2018-08-16T22:27:02.141Z,59.20
2018-08-16T22:29:36.685Z,59.18
2018-08-16T22:32:11.303Z,59.80
2018-08-16T22:34:46.077Z,59.50
2018-08-16T22:37:20.552Z,59.47
2018-08-16T22:39:55.014Z,59.00
2018-08-16T22:42:29.579Z,59.17
2018-08-16T22:45:04.491Z,59.74
2018-08-16T22:47:39.144Z,59.40
2018-08-16T22:50:13.681Z,59.81
2018-08-16T22:52:48.300Z,60.08
2018-08-16T22:55:22.827Z,60.00
2018-08-16T22:57:57.516Z,59.51
2018-08-16T23:00:32.194Z,59.08
2018-08-16T23:03:06.884Z,59.56
2018-08-16T23:05:41.697Z,59.49
2018-08-16T23:08:16.332Z,59.60
2018-08-16T23:10:50.794Z,59.59
2018-08-16T23:13:25.438Z,59.95
2018-08-16T23:16:00.038Z,60.21
2018-08-16T23:18:34.659Z,60.38
2018-08-16T23:21:09.301Z,60.41
2018-08-16T23:23:43.952Z,60.68
2018-08-16T23:26:18.501Z,60.78
2018-08-16T23:28:53.086Z,61.98
2018-08-16T23:31:27.689Z,61.53
2018-08-16T23:34:02.308Z,61.32
2018-08-16T23:36:36.716Z,61.54
2018-08-16T23:39:11.350Z,60.96
2018-08-16T23:41:45.912Z,61.24
2018-08-16T23:44:20.457Z,62.00
2018-08-16T23:46:55.125Z,61.80
2018-08-16T23:49:29.882Z,62.04
2018-08-16T23:52:04.421Z,61.11
2018-08-16T23:54:38.971Z,61.71
2018-08-16T23:57:13.562Z,62.23
2018-08-16T23:59:48.169Z,62.31
